Time;durP1;ratioP1;P1;durP2;ratioP2;P2;SDS_P1;SDS_P2;PMS_P1;PMS_P2;Temp;Humidity;BMP_temperature;BMP_pressure;BME280_temperature;BME280_humidity;BME280_pressure;Samples;Min_cycle;Max_cycle;Signal;HPM_P1;HPM_P2
2022/06/27 00:01:27;;;;;;;7.22;1.13;;;13.00;75.50;;;;;;4858814;29;20396;-77
2022/06/27 00:03:55;;;;;;;11.45;1.27;;;13.00;75.40;;;;;;4862086;29;20045;-77
2022/06/27 00:06:23;;;;;;;4.80;0.70;;;13.00;75.40;;;;;;4859343;29;20057;-78
2022/06/27 00:08:51;;;;;;;3.33;0.80;;;13.00;75.50;;;;;;4861694;29;20041;-78
2022/06/27 00:11:19;;;;;;;6.55;1.33;;;13.00;75.50;;;;;;4860842;29;20061;-78
2022/06/27 00:13:46;;;;;;;5.97;1.00;;;13.10;75.50;;;;;;4860564;29;20049;-78
2022/06/27 00:16:14;;;;;;;7.10;1.05;;;13.10;75.50;;;;;;4858643;29;20058;-77
2022/06/27 00:19:02;;;;;;;8.68;1.02;;;13.10;75.40;;;;;;4851850;29;20515;-78
2022/06/27 00:21:30;;;;;;;2.42;0.57;;;13.10;75.40;;;;;;4860833;29;20399;-78
2022/06/27 00:23:57;;;;;;;6.05;1.10;;;13.10;75.40;;;;;;4859766;29;20049;-78
2022/06/27 00:26:25;;;;;;;6.00;0.95;;;13.10;75.40;;;;;;4860682;29;20053;-78
2022/06/27 00:28:53;;;;;;;3.72;0.73;;;13.10;75.50;;;;;;4856747;29;20069;-78
2022/06/27 00:31:21;;;;;;;5.65;0.93;;;13.20;75.40;;;;;;4860153;29;20065;-78
2022/06/27 00:33:48;;;;;;;5.63;0.85;;;13.10;75.40;;;;;;4841515;29;20061;-78
2022/06/27 00:36:16;;;;;;;7.15;0.80;;;13.10;75.50;;;;;;4852292;29;20052;-77
2022/06/27 00:38:44;;;;;;;8.10;1.00;;;13.10;75.60;;;;;;4858200;29;20049;-77
2022/06/27 00:41:15;;;;;;;5.85;1.10;;;13.20;75.60;;;;;;4858464;29;20465;-78
2022/06/27 00:43:44;;;;;;;6.63;0.80;;;13.10;75.60;;;;;;4852105;29;20077;-78
2022/06/27 00:46:13;;;;;;;3.00;0.65;;;13.10;75.70;;;;;;4861015;29;20056;-78
2022/06/27 00:48:40;;;;;;;7.22;1.10;;;13.10;76.10;;;;;;4860139;29;20045;-77
2022/06/27 00:51:09;;;;;;;9.57;0.80;;;13.00;76.60;;;;;;4857652;29;20046;-78
2022/06/27 00:53:38;;;;;;;3.10;0.85;;;13.00;76.80;;;;;;4859316;29;20045;-77
2022/06/27 00:56:06;;;;;;;1.88;0.70;;;12.90;76.80;;;;;;4861384;29;20041;-78
2022/06/27 00:58:33;;;;;;;9.57;1.15;;;13.00;77.00;;;;;;4860661;29;20510;-78
2022/06/27 01:01:01;;;;;;;5.28;0.98;;;13.00;77.10;;;;;;4858802;29;20059;-78
2022/06/27 01:03:29;;;;;;;5.65;1.15;;;12.90;77.30;;;;;;4838044;29;20200;-78
2022/06/27 01:05:58;;;;;;;2.70;0.70;;;13.00;77.30;;;;;;4859907;29;20558;-78
2022/06/27 01:08:25;;;;;;;7.72;1.00;;;13.00;77.20;;;;;;4858636;29;20419;-77
2022/06/27 01:10:54;;;;;;;7.75;0.65;;;13.00;77.30;;;;;;4860701;29;20054;-78
2022/06/27 01:13:23;;;;;;;4.72;0.70;;;13.00;77.40;;;;;;4860856;29;20049;-80
2022/06/27 01:15:50;;;;;;;3.75;0.85;;;13.00;77.40;;;;;;4859586;29;20061;-78
2022/06/27 01:18:18;;;;;;;7.82;1.10;;;13.00;77.60;;;;;;4859206;29;20396;-79
2022/06/27 01:20:46;;;;;;;4.00;1.00;;;13.00;77.70;;;;;;4843687;29;20978;-79
2022/06/27 01:23:14;;;;;;;6.05;0.80;;;12.90;77.80;;;;;;4858168;29;20046;-78
2022/06/27 01:25:42;;;;;;;5.47;0.82;;;12.80;78.00;;;;;;4859575;29;20048;-77
2022/06/27 01:28:12;;;;;;;5.78;0.90;;;12.80;78.10;;;;;;4854944;29;20050;-78
2022/06/27 01:30:39;;;;;;;4.05;0.82;;;12.80;78.30;;;;;;4859426;29;20046;-78
2022/06/27 01:33:07;;;;;;;4.00;0.80;;;12.80;78.40;;;;;;4840130;29;20049;-78
2022/06/27 01:35:38;;;;;;;3.53;0.63;;;12.80;78.60;;;;;;4855576;29;20057;-78
2022/06/27 01:38:06;;;;;;;6.38;0.90;;;12.80;78.50;;;;;;4859751;29;20068;-79
2022/06/27 01:40:35;;;;;;;3.90;0.60;;;12.80;78.40;;;;;;4858435;29;20061;-79
2022/06/27 01:43:04;;;;;;;9.05;1.15;;;12.80;78.40;;;;;;4859580;29;20057;-79
2022/06/27 01:45:33;;;;;;;5.55;0.70;;;12.80;78.60;;;;;;4859728;29;20045;-79
2022/06/27 01:48:02;;;;;;;5.00;0.90;;;12.80;78.60;;;;;;4857318;29;20120;-77
2022/06/27 01:50:31;;;;;;;5.43;0.95;;;12.80;78.80;;;;;;4864871;29;20054;-76
2022/06/27 01:53:00;;;;;;;4.60;0.88;;;12.80;78.70;;;;;;4871819;29;20066;-75
2022/06/27 01:55:28;;;;;;;3.50;0.70;;;12.80;78.60;;;;;;4857859;29;20053;-77
2022/06/27 01:57:57;;;;;;;8.40;1.00;;;12.80;78.70;;;;;;4864036;29;20050;-77
2022/06/27 02:00:25;;;;;;;5.13;0.88;;;12.80;78.80;;;;;;4850153;29;20053;-77
2022/06/27 02:03:00;;;;;;;5.93;0.80;;;12.80;78.70;;;;;;4871493;29;20076;-77
2022/06/27 02:05:40;;;;;;;8.60;1.08;;;12.90;78.80;;;;;;4861634;29;20053;-77
2022/06/27 02:08:10;;;;;;;3.42;0.80;;;12.80;78.70;;;;;;4860910;29;20045;-78
2022/06/27 02:10:38;;;;;;;4.45;0.98;;;12.90;78.80;;;;;;4859430;29;20493;-78
2022/06/27 02:13:05;;;;;;;3.92;0.88;;;12.90;78.80;;;;;;4842846;29;20049;-78
2022/06/27 02:15:33;;;;;;;5.10;0.68;;;12.80;79.00;;;;;;4856312;29;20054;-78
2022/06/27 02:18:01;;;;;;;3.60;0.60;;;12.80;79.10;;;;;;4858628;29;20492;-78
2022/06/27 02:20:30;;;;;;;4.03;0.80;;;12.80;79.20;;;;;;4840631;29;20060;-78
2022/06/27 02:22:57;;;;;;;7.82;1.38;;;12.80;79.20;;;;;;4857576;29;20053;-77
2022/06/27 02:25:26;;;;;;;6.22;0.85;;;12.80;79.30;;;;;;4857659;29;20053;-77
2022/06/27 02:27:56;;;;;;;1.65;0.50;;;12.80;79.40;;;;;;4857639;29;20045;-78
2022/06/27 02:30:24;;;;;;;7.00;1.10;;;12.80;79.40;;;;;;4858866;29;20056;-78
2022/06/27 02:32:51;;;;;;;5.45;0.90;;;12.80;79.50;;;;;;4858552;29;20064;-78
2022/06/27 02:35:20;;;;;;;7.13;1.17;;;12.80;79.80;;;;;;4858099;29;20045;-78
2022/06/27 02:37:48;;;;;;;9.20;1.15;;;12.80;79.90;;;;;;4844657;29;20060;-77
2022/06/27 02:40:18;;;;;;;5.85;1.15;;;12.80;79.80;;;;;;4843592;29;20061;-78
2022/06/27 02:42:47;;;;;;;5.07;1.17;;;12.80;80.00;;;;;;4859162;29;20077;-78
2022/06/27 02:45:15;;;;;;;6.97;0.93;;;12.70;80.20;;;;;;4858149;29;20072;-78
2022/06/27 02:47:49;;;;;;;7.85;1.30;;;12.70;80.30;;;;;;4857530;29;20060;-78
2022/06/27 02:50:17;;;;;;;8.90;1.40;;;12.70;80.50;;;;;;4854811;29;20500;-78
2022/06/27 02:52:50;;;;;;;8.65;1.10;;;12.70;80.70;;;;;;4858990;29;20403;-78
2022/06/27 02:55:22;;;;;;;4.35;0.98;;;12.70;80.80;;;;;;4870306;29;20061;-78
2022/06/27 02:58:18;;;;;;;10.05;1.58;;;12.70;80.80;;;;;;4856974;29;20049;-78
2022/06/27 03:00:49;;;;;;;13.88;1.42;;;12.70;80.90;;;;;;4854911;29;20357;-78
2022/06/27 03:03:17;;;;;;;10.55;1.70;;;12.70;80.90;;;;;;4857765;29;20632;-77
2022/06/27 03:06:02;;;;;;;6.82;1.25;;;12.70;80.90;;;;;;4858075;29;20514;-77
2022/06/27 03:08:56;;;;;;;10.75;1.63;;;12.70;81.20;;;;;;4863019;29;20052;-78
2022/06/27 03:11:25;;;;;;;11.45;1.80;;;12.70;81.20;;;;;;4854258;29;20065;-78
2022/06/27 03:13:54;;;;;;;17.38;2.17;;;12.70;81.30;;;;;;4857485;29;20053;-78
2022/06/27 03:16:23;;;;;;;12.02;1.73;;;12.70;81.30;;;;;;4861076;29;20381;-78
2022/06/27 03:18:55;;;;;;;11.60;2.30;;;12.70;81.50;;;;;;4838656;29;20057;-78
2022/06/27 03:21:43;;;;;;;9.90;1.83;;;12.70;81.50;;;;;;4845013;29;20045;-78
2022/06/27 03:24:12;;;;;;;13.63;1.73;;;12.70;81.60;;;;;;4857064;29;20515;-78
2022/06/27 03:26:42;;;;;;;9.30;1.38;;;12.70;81.60;;;;;;4849826;29;20057;-78
2022/06/27 03:29:10;;;;;;;10.68;1.70;;;12.70;81.60;;;;;;4838951;29;20050;-78
2022/06/27 03:31:40;;;;;;;8.95;1.67;;;12.70;81.70;;;;;;4856713;29;20077;-78
2022/06/27 03:34:11;;;;;;;12.55;1.60;;;12.70;81.70;;;;;;4857628;29;20049;-78
2022/06/27 03:37:14;;;;;;;14.43;1.92;;;12.70;82.00;;;;;;4844050;29;20060;-78
2022/06/27 03:39:43;;;;;;;10.30;1.80;;;12.70;82.00;;;;;;4856377;29;20527;-78
2022/06/27 03:42:11;;;;;;;8.93;1.55;;;12.60;82.00;;;;;;4857131;29;20057;-78
2022/06/27 03:44:38;;;;;;;10.85;1.45;;;12.60;82.20;;;;;;4857923;29;20053;-79
2022/06/27 03:47:06;;;;;;;12.63;2.15;;;12.60;82.40;;;;;;4856954;29;20547;-78
2022/06/27 03:50:02;;;;;;;14.25;2.10;;;12.50;82.60;;;;;;4854316;29;20097;-79
2022/06/27 03:52:34;;;;;;;15.18;2.10;;;12.50;82.50;;;;;;4855388;29;20384;-78
2022/06/27 03:55:03;;;;;;;10.63;2.05;;;12.50;82.50;;;;;;4868705;29;20053;-79
2022/06/27 03:57:31;;;;;;;10.07;1.58;;;12.50;82.60;;;;;;4857146;29;20053;-78
2022/06/27 03:59:58;;;;;;;12.93;1.85;;;12.50;82.90;;;;;;4857183;29;20045;-78
2022/06/27 04:02:27;;;;;;;14.75;2.28;;;12.40;82.80;;;;;;4855486;29;21537;-78
2022/06/27 04:05:15;;;;;;;11.93;1.85;;;12.40;82.80;;;;;;4833425;29;20049;-78
2022/06/27 04:07:44;;;;;;;12.95;1.98;;;12.50;82.90;;;;;;4855351;29;20057;-78
2022/06/27 04:10:12;;;;;;;14.60;2.28;;;12.50;83.00;;;;;;4860233;29;20056;-78
2022/06/27 04:12:41;;;;;;;10.38;1.65;;;12.40;82.90;;;;;;4857210;29;20061;-78
2022/06/27 04:15:29;;;;;;;7.65;1.35;;;12.50;82.90;;;;;;4873211;29;20049;-78
2022/06/27 04:18:15;;;;;;;10.95;2.10;;;12.50;82.90;;;;;;4861957;29;20050;-79
2022/06/27 04:21:01;;;;;;;13.50;2.20;;;12.50;82.80;;;;;;4861755;29;20050;-78
2022/06/27 04:23:46;;;;;;;10.73;1.98;;;12.50;82.90;;;;;;4859425;29;20045;-78
2022/06/27 04:26:16;;;;;;;15.48;1.77;;;12.50;82.80;;;;;;4860918;29;20483;-79
2022/06/27 04:28:45;;;;;;;15.10;1.90;;;12.50;82.90;;;;;;4860400;29;20053;-78
2022/06/27 04:31:13;;;;;;;13.98;1.85;;;12.50;82.90;;;;;;4859704;29;20500;-78
2022/06/27 04:33:44;;;;;;;13.70;1.88;;;12.50;82.90;;;;;;4859853;29;20088;-78
2022/06/27 04:36:12;;;;;;;11.80;1.77;;;12.50;82.90;;;;;;4859885;29;20393;-79
2022/06/27 04:38:40;;;;;;;11.32;1.77;;;12.50;82.80;;;;;;4873867;29;20060;-78
2022/06/27 04:41:08;;;;;;;12.52;1.95;;;12.50;82.90;;;;;;4850250;29;20058;-79
2022/06/27 04:43:39;;;;;;;18.35;1.67;;;12.50;83.00;;;;;;4858072;29;20065;-79
2022/06/27 04:46:07;;;;;;;11.20;1.65;;;12.50;82.90;;;;;;4859758;29;20488;-78
2022/06/27 04:48:57;;;;;;;9.65;1.92;;;12.50;82.90;;;;;;4858543;29;20061;-79
2022/06/27 04:51:24;;;;;;;8.07;1.67;;;12.50;82.90;;;;;;4860481;29;20053;-78
2022/06/27 04:53:53;;;;;;;12.38;2.35;;;12.50;83.00;;;;;;4858640;29;20060;-79
2022/06/27 04:56:21;;;;;;;13.65;1.75;;;12.50;83.10;;;;;;4853826;29;20052;-79
2022/06/27 04:58:49;;;;;;;14.43;1.73;;;12.50;83.20;;;;;;4858081;29;20069;-78
2022/06/27 05:01:18;;;;;;;13.18;1.50;;;12.50;83.40;;;;;;4858317;29;20069;-78
2022/06/27 05:03:56;;;;;;;11.98;1.77;;;12.40;83.50;;;;;;4841867;29;20054;-79
2022/06/27 05:06:29;;;;;;;10.85;1.42;;;12.40;83.60;;;;;;4842582;29;20539;-79
2022/06/27 05:08:58;;;;;;;12.63;2.00;;;12.40;83.60;;;;;;4855376;29;20065;-79
2022/06/27 05:11:26;;;;;;;13.32;1.42;;;12.40;83.80;;;;;;4862692;29;20041;-78
2022/06/27 05:13:54;;;;;;;9.45;1.45;;;12.40;83.90;;;;;;4862708;29;20480;-78
2022/06/27 05:16:34;;;;;;;11.60;1.80;;;12.40;83.90;;;;;;4859915;29;20037;-79
2022/06/27 05:19:02;;;;;;;10.00;1.92;;;12.40;84.10;;;;;;4844417;29;20057;-77
2022/06/27 05:21:44;;;;;;;9.48;1.58;;;12.40;84.20;;;;;;4858764;29;20048;-78
2022/06/27 05:24:12;;;;;;;13.98;2.03;;;12.40;84.20;;;;;;4858912;29;20061;-78
2022/06/27 05:26:40;;;;;;;13.20;1.90;;;12.40;84.10;;;;;;4858549;29;20072;-78
2022/06/27 05:29:08;;;;;;;13.18;2.05;;;12.40;84.10;;;;;;4858474;29;20045;-78
2022/06/27 05:31:36;;;;;;;14.63;1.60;;;12.50;84.30;;;;;;4858373;29;20045;-78
2022/06/27 05:34:04;;;;;;;11.88;1.92;;;12.50;84.30;;;;;;4854997;29;20053;-77
2022/06/27 05:36:32;;;;;;;10.70;1.95;;;12.50;84.30;;;;;;4857984;29;20241;-79
2022/06/27 05:38:59;;;;;;;11.40;1.77;;;12.50;84.30;;;;;;4857810;29;20045;-78
2022/06/27 05:41:27;;;;;;;5.80;1.20;;;12.50;84.40;;;;;;4860311;29;20049;-79
2022/06/27 05:44:00;;;;;;;8.95;1.55;;;12.50;84.50;;;;;;4870489;29;20046;-79
2022/06/27 05:46:29;;;;;;;10.23;1.60;;;12.50;84.50;;;;;;4858101;29;20420;-78
2022/06/27 05:49:17;;;;;;;8.45;1.38;;;12.60;84.70;;;;;;4820843;29;20078;-79
2022/06/27 05:51:52;;;;;;;8.88;1.30;;;12.60;84.60;;;;;;4856933;29;20066;-79
2022/06/27 05:54:24;;;;;;;12.52;2.05;;;12.70;84.60;;;;;;4858287;29;20061;-79
2022/06/27 05:56:52;;;;;;;11.27;1.55;;;12.70;84.60;;;;;;4859411;29;20050;-78
2022/06/27 05:59:22;;;;;;;9.63;1.60;;;12.80;84.70;;;;;;4855722;29;20064;-79
2022/06/27 06:01:51;;;;;;;10.23;1.58;;;12.80;84.60;;;;;;4857249;29;20045;-79
2022/06/27 06:04:20;;;;;;;9.55;1.23;;;12.80;84.60;;;;;;4858376;29;20515;-79
2022/06/27 06:06:49;;;;;;;10.05;1.52;;;12.80;84.60;;;;;;4858659;29;20045;-78
2022/06/27 06:09:17;;;;;;;6.60;1.23;;;12.90;84.60;;;;;;4858526;29;20053;-79
2022/06/27 06:11:48;;;;;;;8.95;1.38;;;13.00;84.60;;;;;;4857491;29;20064;-78
2022/06/27 06:14:19;;;;;;;7.70;1.45;;;13.10;84.50;;;;;;4852767;29;20045;-79
2022/06/27 06:16:49;;;;;;;10.13;1.95;;;13.20;84.40;;;;;;4854216;29;20103;-79
2022/06/27 06:19:18;;;;;;;9.48;1.42;;;13.20;84.30;;;;;;4851000;29;20050;-79
2022/06/27 06:21:46;;;;;;;7.18;1.00;;;13.20;84.20;;;;;;4852358;29;20403;-79
2022/06/27 06:24:14;;;;;;;8.18;1.67;;;13.30;84.10;;;;;;4839642;29;20050;-79
2022/06/27 06:26:42;;;;;;;9.85;1.45;;;13.30;84.00;;;;;;4856894;29;20061;-78
2022/06/27 06:29:12;;;;;;;5.80;1.48;;;13.30;84.00;;;;;;4840378;29;20065;-80
2022/06/27 06:31:44;;;;;;;9.35;1.65;;;13.30;83.90;;;;;;4855316;29;20052;-79
2022/06/27 06:34:14;;;;;;;8.30;1.55;;;13.30;83.90;;;;;;4853173;29;20060;-80
2022/06/27 06:36:43;;;;;;;12.07;1.42;;;13.30;83.90;;;;;;4858214;29;20049;-79
2022/06/27 06:39:11;;;;;;;6.40;1.50;;;13.30;83.80;;;;;;4857090;29;20503;-79
2022/06/27 06:41:40;;;;;;;5.55;1.00;;;13.30;83.90;;;;;;4854974;29;20053;-79
2022/06/27 06:44:07;;;;;;;8.07;1.27;;;13.30;84.00;;;;;;4857239;29;20048;-79
2022/06/27 06:46:53;;;;;;;6.93;1.23;;;13.30;84.00;;;;;;4856648;29;20068;-79
2022/06/27 06:49:45;;;;;;;6.82;1.35;;;13.30;84.10;;;;;;4850937;29;20115;-78
2022/06/27 06:52:13;;;;;;;5.78;1.30;;;13.40;84.10;;;;;;4858547;29;20193;-79
2022/06/27 06:54:45;;;;;;;8.98;1.45;;;13.50;84.10;;;;;;4856164;29;20045;-80
2022/06/27 06:57:18;;;;;;;8.23;1.40;;;13.60;83.90;;;;;;4859961;29;20064;-79
2022/06/27 06:59:46;;;;;;;9.77;1.45;;;13.70;83.60;;;;;;4856465;29;20479;-80
2022/06/27 07:02:13;;;;;;;8.20;1.20;;;13.60;83.60;;;;;;4852940;29;20538;-80
2022/06/27 07:04:41;;;;;;;5.38;1.15;;;13.70;83.70;;;;;;4856020;29;20149;-80
2022/06/27 07:07:10;;;;;;;6.80;1.15;;;13.60;83.60;;;;;;4849177;29;20045;-80
2022/06/27 07:09:38;;;;;;;6.65;1.23;;;13.60;83.70;;;;;;4857205;29;20061;-80
2022/06/27 07:12:08;;;;;;;5.18;1.38;;;13.60;83.80;;;;;;4852360;29;20223;-80
2022/06/27 07:14:36;;;;;;;5.38;1.17;;;13.60;83.90;;;;;;4850867;29;20041;-80
2022/06/27 07:17:03;;;;;;;6.47;1.15;;;13.70;84.00;;;;;;4857981;29;20053;-81
2022/06/27 07:19:32;;;;;;;10.48;1.10;;;13.70;83.90;;;;;;4859134;29;20064;-80
2022/06/27 07:22:01;;;;;;;7.00;1.40;;;13.60;83.90;;;;;;4859653;29;20068;-80
2022/06/27 07:24:29;;;;;;;6.95;1.20;;;13.60;84.00;;;;;;4858742;29;20046;-80
2022/06/27 07:26:59;;;;;;;8.88;1.45;;;13.50;84.10;;;;;;4855849;29;20049;-79
2022/06/27 07:29:27;;;;;;;6.53;1.42;;;13.60;84.20;;;;;;4841714;29;20050;-79
2022/06/27 07:31:54;;;;;;;6.30;0.95;;;13.50;84.20;;;;;;4856259;29;20045;-80
2022/06/27 07:34:22;;;;;;;4.38;1.23;;;13.50;84.30;;;;;;4852045;29;20053;-80
2022/06/27 07:36:53;;;;;;;7.28;1.40;;;13.50;84.30;;;;;;4856809;29;20050;-80
2022/06/27 07:39:21;;;;;;;7.10;1.42;;;13.60;84.40;;;;;;4859687;29;20057;-80
2022/06/27 07:41:49;;;;;;;6.85;1.67;;;13.60;84.30;;;;;;4859560;29;20053;-80
2022/06/27 07:44:17;;;;;;;6.28;1.10;;;13.70;84.30;;;;;;4861550;29;20041;-80
2022/06/27 07:46:44;;;;;;;7.68;1.50;;;13.80;84.20;;;;;;4861769;29;20396;-79
2022/06/27 07:49:12;;;;;;;6.88;1.50;;;13.80;84.20;;;;;;4842870;29;20062;-80
2022/06/27 07:51:41;;;;;;;9.77;1.30;;;13.80;84.10;;;;;;4855390;29;20049;-80
2022/06/27 07:54:13;;;;;;;9.35;1.23;;;13.80;84.00;;;;;;4861124;29;20053;-79
2022/06/27 07:56:41;;;;;;;5.45;1.33;;;13.80;84.10;;;;;;4862019;29;20041;-78
2022/06/27 07:59:28;;;;;;;5.82;1.20;;;13.80;84.30;;;;;;4862582;29;20392;-80
2022/06/27 08:01:56;;;;;;;5.00;1.13;;;13.70;84.50;;;;;;4861153;29;20068;-84
2022/06/27 08:04:24;;;;;;;3.17;1.00;;;13.50;84.60;;;;;;4862968;29;20521;-83
2022/06/27 08:06:53;;;;;;;5.85;0.70;;;13.30;85.00;;;;;;4862291;29;20048;-80
2022/06/27 08:09:21;;;;;;;3.58;0.75;;;13.30;85.30;;;;;;4862567;29;20053;-78
2022/06/27 08:11:49;;;;;;;1.90;0.50;;;13.10;85.30;;;;;;4860942;29;20042;-78
2022/06/27 08:14:17;;;;;;;1.88;0.70;;;13.10;85.40;;;;;;4862067;29;20048;-78
2022/06/27 08:16:49;;;;;;;3.03;0.65;;;13.00;85.50;;;;;;4862623;29;20064;-79
2022/06/27 08:19:19;;;;;;;4.13;0.70;;;13.00;85.70;;;;;;4860799;29;20049;-78
2022/06/27 08:21:47;;;;;;;3.53;0.70;;;13.10;85.80;;;;;;4861320;29;20049;-79
2022/06/27 08:24:18;;;;;;;1.83;0.63;;;13.10;85.80;;;;;;4861466;29;20049;-79
2022/06/27 08:26:47;;;;;;;3.22;0.77;;;13.20;85.80;;;;;;4861881;29;20042;-79
2022/06/27 08:29:15;;;;;;;5.20;0.70;;;13.20;85.70;;;;;;4860870;29;20061;-80
2022/06/27 08:31:44;;;;;;;2.47;0.82;;;13.30;85.60;;;;;;4861742;29;20052;-81
2022/06/27 08:34:13;;;;;;;1.55;0.60;;;13.30;85.50;;;;;;4861879;29;20056;-81
2022/06/27 08:36:41;;;;;;;3.75;0.80;;;13.40;85.40;;;;;;4861492;29;20042;-82
2022/06/27 08:39:15;;;;;;;1.13;0.70;;;13.60;85.30;;;;;;4860425;29;20049;-81
2022/06/27 08:41:47;;;;;;;4.38;0.63;;;13.70;85.10;;;;;;4855428;29;20496;-83
2022/06/27 08:44:16;;;;;;;5.68;0.82;;;13.80;84.60;;;;;;4861667;29;20061;-84
2022/06/27 08:46:45;;;;;;;0.82;0.55;;;13.80;84.50;;;;;;4860668;29;20522;-83
2022/06/27 08:49:14;;;;;;;3.03;0.75;;;13.80;84.40;;;;;;4851665;29;20053;-84
2022/06/27 08:51:43;;;;;;;3.10;0.70;;;13.90;84.30;;;;;;4861267;29;20049;-84
2022/06/27 08:54:11;;;;;;;4.30;1.20;;;14.00;84.20;;;;;;4861802;29;20057;-84
2022/06/27 08:56:40;;;;;;;1.80;0.90;;;14.20;84.30;;;;;;4860811;29;20053;-84
2022/06/27 08:59:08;;;;;;;3.60;0.93;;;14.40;84.00;;;;;;4868907;29;20404;-84
2022/06/27 09:01:35;;;;;;;3.00;0.98;;;14.60;83.20;;;;;;4861738;29;20064;-85
2022/06/27 09:04:09;;;;;;;0.52;0.40;;;14.80;82.70;;;;;;4862312;29;20050;-85
2022/06/27 09:06:55;;;;;;;1.63;0.80;;;14.90;82.20;;;;;;4863376;29;20526;-85
2022/06/27 09:09:27;;;;;;;4.78;1.30;;;15.00;81.80;;;;;;4862258;29;20054;-85
2022/06/27 09:11:56;;;;;;;2.78;0.60;;;15.10;81.90;;;;;;4863091;29;20060;-87
2022/06/27 09:14:35;;;;;;;2.45;0.80;;;15.10;81.30;;;;;;4866077;29;20065;-86
2022/06/27 09:17:09;;;;;;;1.48;0.80;;;15.20;81.30;;;;;;4863560;29;20053;-86
2022/06/27 09:19:48;;;;;;;2.88;0.70;;;15.30;80.10;;;;;;4847167;29;20050;-86
2022/06/27 09:22:17;;;;;;;4.05;0.70;;;15.30;79.60;;;;;;4863666;29;20057;-86
2022/06/27 09:25:13;;;;;;;1.67;0.57;;;15.30;79.50;;;;;;4866537;29;20487;-87
2022/06/27 09:27:50;;;;;;;2.67;0.50;;;15.30;79.40;;;;;;4856399;29;20045;-84
2022/06/27 09:30:18;;;;;;;2.70;0.70;;;15.50;78.00;;;;;;4864545;29;20049;-86
2022/06/27 09:32:49;;;;;;;1.65;0.47;;;15.50;77.50;;;;;;4863500;29;20049;-86
2022/06/27 09:35:38;;;;;;;1.95;0.50;;;15.50;76.70;;;;;;4864010;29;20054;-87
2022/06/27 09:38:07;;;;;;;1.48;0.50;;;15.60;76.50;;;;;;4863171;29;20054;-88
2022/06/27 09:40:38;;;;;;;1.60;0.60;;;15.60;76.50;;;;;;4863637;29;20058;-87
2022/06/27 09:43:09;;;;;;;2.65;0.60;;;15.60;76.00;;;;;;4863456;29;20068;-88
2022/06/27 09:45:37;;;;;;;2.92;0.50;;;15.50;75.50;;;;;;4864632;29;20522;-86
2022/06/27 09:48:15;;;;;;;1.23;0.45;;;15.40;74.70;;;;;;4863423;29;20060;-87
2022/06/27 09:50:44;;;;;;;2.67;0.52;;;15.30;74.20;;;;;;4863271;29;20045;-86
2022/06/27 09:53:13;;;;;;;1.27;0.32;;;15.20;74.10;;;;;;4861637;29;20064;-87
2022/06/27 09:55:42;;;;;;;3.42;0.60;;;15.00;73.60;;;;;;4861472;29;20053;-87
2022/06/27 09:58:11;;;;;;;2.83;0.55;;;14.90;73.60;;;;;;4862178;29;20060;-86
2022/06/27 10:00:41;;;;;;;2.72;0.80;;;14.90;73.90;;;;;;4861474;29;20045;-87
2022/06/27 10:03:09;;;;;;;2.25;0.60;;;15.00;73.50;;;;;;4860241;29;20045;-86
2022/06/27 10:05:43;;;;;;;1.42;0.63;;;15.10;73.20;;;;;;4859652;29;20073;-86
2022/06/27 10:08:13;;;;;;;1.08;0.40;;;15.20;72.90;;;;;;4858422;29;20050;-86
2022/06/27 10:11:20;;;;;;;3.55;0.68;;;15.20;72.30;;;;;;4857254;29;20046;-87
2022/06/27 10:14:10;;;;;;;3.72;0.93;;;15.00;70.90;;;;;;4786125;29;20073;-86
2022/06/27 10:16:57;;;;;;;2.37;0.70;;;14.90;71.50;;;;;;4786585;29;20066;-87
2022/06/27 10:19:28;;;;;;;1.58;0.40;;;14.80;72.00;;;;;;4794741;29;20085;-85
2022/06/27 10:21:56;;;;;;;2.60;0.70;;;14.50;71.90;;;;;;4799827;29;20452;-81
2022/06/27 10:24:24;;;;;;;3.55;0.77;;;14.20;73.80;;;;;;4790919;29;20055;-79
2022/06/27 10:26:54;;;;;;;2.80;0.50;;;13.80;75.90;;;;;;4787352;29;20051;-78
2022/06/27 10:29:28;;;;;;;3.25;0.40;;;13.50;77.40;;;;;;4799591;29;20128;-79
2022/06/27 10:31:57;;;;;;;1.83;0.63;;;13.30;78.70;;;;;;4800510;29;20066;-79
2022/06/27 10:34:50;;;;;;;2.78;0.57;;;13.30;78.90;;;;;;4803307;29;20066;-78
2022/06/27 10:37:33;;;;;;;5.30;0.60;;;13.30;79.10;;;;;;4793510;29;20501;-79
2022/06/27 10:40:19;;;;;;;5.47;0.80;;;13.30;79.20;;;;;;4794107;29;20071;-80
2022/06/27 10:42:53;;;;;;;2.08;0.60;;;13.60;79.20;;;;;;4802891;29;20059;-81
2022/06/27 10:45:21;;;;;;;1.27;0.55;;;14.00;78.80;;;;;;4839682;29;20057;-81
2022/06/27 10:47:53;;;;;;;2.00;0.85;;;14.30;78.00;;;;;;4860058;29;20053;-81
2022/06/27 10:50:26;;;;;;;5.07;1.00;;;14.60;77.60;;;;;;4860362;29;20053;-81
2022/06/27 10:53:19;;;;;;;8.32;0.77;;;14.80;76.60;;;;;;4860249;29;20407;-83
2022/06/27 10:55:47;;;;;;;25.17;1.83;;;15.00;75.80;;;;;;4860080;29;20049;-83
2022/06/27 10:58:24;;;;;;;3.30;0.70;;;15.30;75.00;;;;;;4859267;29;20053;-83
2022/06/27 11:00:51;;;;;;;4.85;0.70;;;15.30;75.00;;;;;;4859846;29;20061;-83
2022/06/27 11:03:22;;;;;;;2.47;0.82;;;15.30;74.80;;;;;;4859616;29;20053;-83
2022/06/27 11:05:55;;;;;;;2.42;0.73;;;15.30;74.40;;;;;;4871559;29;20052;-84
2022/06/27 11:08:23;;;;;;;1.60;0.60;;;15.10;74.40;;;;;;4848845;29;20511;-84
2022/06/27 11:10:52;;;;;;;4.55;0.73;;;14.90;74.70;;;;;;4855972;29;20061;-84
2022/06/27 11:13:38;;;;;;;3.40;0.63;;;14.80;75.10;;;;;;4860694;29;20083;-84
2022/06/27 11:16:07;;;;;;;2.17;0.70;;;14.60;76.20;;;;;;4860190;29;20048;-85
2022/06/27 11:20:04;;;;;;;3.63;0.70;;;14.40;76.70;;;;;;4861167;29;20057;-84
2022/06/27 11:21:56;;;;;;;3.05;0.60;;;14.20;77.40;;;;;;4865519;29;20056;-84
2022/06/27 11:24:24;;;;;;;2.95;0.88;;;14.10;78.00;;;;;;4866558;29;20546;-85
2022/06/27 11:26:51;;;;;;;3.42;1.00;;;14.10;78.30;;;;;;4870515;29;20057;-84
2022/06/27 11:32:13;;;;;;;5.85;1.17;;;14.10;78.20;;;;;;4863874;29;20050;-85
2022/06/27 11:34:47;;;;;;;5.97;0.98;;;14.10;77.60;;;;;;4864259;29;20049;-84
2022/06/27 11:37:17;;;;;;;6.97;1.10;;;14.20;77.60;;;;;;4857134;29;20058;-85
2022/06/27 11:40:01;;;;;;;4.28;0.80;;;14.40;77.50;;;;;;4853453;29;20038;-86
2022/06/27 11:42:35;;;;;;;2.25;0.55;;;14.80;77.10;;;;;;4857367;29;20074;-86
2022/06/27 11:45:14;;;;;;;6.43;0.82;;;15.10;76.10;;;;;;4854077;29;20049;-86
2022/06/27 11:47:44;;;;;;;3.35;0.85;;;15.50;75.20;;;;;;4852900;29;20054;-86
2022/06/27 11:50:15;;;;;;;4.70;0.90;;;15.90;73.70;;;;;;4858200;29;20056;-86
2022/06/27 11:52:47;;;;;;;5.78;0.90;;;16.10;71.80;;;;;;4865063;29;20057;-86
2022/06/27 11:55:20;;;;;;;7.60;1.20;;;16.30;68.90;;;;;;4864174;29;20053;-85
2022/06/27 11:57:51;;;;;;;3.20;0.85;;;16.70;68.80;;;;;;4846018;29;20053;-84
2022/06/27 12:00:22;;;;;;;15.82;1.23;;;17.00;67.80;;;;;;4850060;29;20483;-86
2022/06/27 12:03:08;;;;;;;5.72;1.02;;;17.50;67.90;;;;;;4861676;29;20050;-86
2022/06/27 12:05:38;;;;;;;15.13;1.30;;;18.00;67.10;;;;;;4863704;29;20054;-86
2022/06/27 12:08:09;;;;;;;6.15;1.23;;;18.40;65.90;;;;;;4869872;29;20050;-86
2022/06/27 12:11:16;;;;;;;6.05;1.08;;;18.70;65.30;;;;;;4862569;29;20072;-85
2022/06/27 12:13:36;;;;;;;5.35;0.95;;;18.90;64.10;;;;;;4864263;29;20053;-87
2022/06/27 12:16:06;;;;;;;6.95;1.30;;;19.00;63.10;;;;;;4866238;29;20053;-86
2022/06/27 12:18:44;;;;;;;6.13;1.40;;;18.80;62.90;;;;;;4865548;29;20054;-87
2022/06/27 12:21:12;;;;;;;3.30;0.80;;;18.60;62.20;;;;;;4862839;29;20049;-87
2022/06/27 12:23:39;;;;;;;3.40;0.88;;;18.20;58.90;;;;;;4862977;29;20615;-88
2022/06/27 12:26:08;;;;;;;3.50;0.90;;;17.90;57.50;;;;;;4863530;29;20510;-87
2022/06/27 12:28:35;;;;;;;4.60;0.80;;;18.00;58.60;;;;;;4863382;29;20056;-86
2022/06/27 12:31:03;;;;;;;4.38;1.05;;;18.40;57.90;;;;;;4862915;29;20050;-86
2022/06/27 12:33:30;;;;;;;11.18;1.85;;;18.90;57.60;;;;;;4861745;29;20054;-86
2022/06/27 12:35:58;;;;;;;5.65;1.00;;;19.60;56.30;;;;;;4861978;29;20045;-87
2022/06/27 12:38:26;;;;;;;12.02;1.10;;;20.00;52.50;;;;;;4862866;29;20045;-87
2022/06/27 12:41:11;;;;;;;9.13;1.35;;;20.10;53.30;;;;;;4861864;29;20046;-83
2022/06/27 12:43:49;;;;;;;4.93;0.77;;;20.10;52.30;;;;;;4862117;29;20072;-86
2022/06/27 12:46:19;;;;;;;3.63;0.60;;;20.20;46.50;;;;;;4876900;29;20502;-85
2022/06/27 12:48:47;;;;;;;6.30;0.90;;;20.20;45.30;;;;;;4862123;29;20053;-85
2022/06/27 12:51:15;;;;;;;5.13;0.60;;;20.00;44.50;;;;;;4861089;29;20057;-85
2022/06/27 12:53:43;;;;;;;6.40;1.10;;;20.10;45.40;;;;;;4862115;29;20045;-84
2022/06/27 12:56:11;;;;;;;9.82;1.50;;;20.40;42.20;;;;;;4861863;29;20049;-84
2022/06/27 12:58:39;;;;;;;2.10;0.80;;;20.70;42.20;;;;;;4845124;29;20054;-84
2022/06/27 13:01:06;;;;;;;4.15;0.95;;;21.00;38.20;;;;;;4860740;29;20388;-83
2022/06/27 13:03:34;;;;;;;6.95;1.20;;;21.10;39.50;;;;;;4861219;29;20060;-83
2022/06/27 13:06:02;;;;;;;1.95;0.50;;;21.10;38.10;;;;;;4860195;29;20056;-80
2022/06/27 13:08:30;;;;;;;3.00;0.80;;;21.30;38.80;;;;;;4861392;29;20057;-79
2022/06/27 13:10:57;;;;;;;7.03;1.00;;;21.20;39.60;;;;;;4861904;29;20435;-81